createdAt,value
2019-06-08T00:01:43.212Z,100689.51
2019-06-08T00:04:12.953Z,100698.02
2019-06-08T00:06:42.269Z,100713.88
2019-06-08T00:11:51.427Z,100710.08
2019-06-08T00:17:00.628Z,100672.21
2019-06-08T00:19:29.226Z,100676.12
2019-06-08T00:21:57.800Z,100695.80
2019-06-08T00:24:26.873Z,100710.70
2019-06-08T00:26:57.089Z,100715.26
2019-06-08T00:29:26.096Z,100670.35
2019-06-08T00:34:33.027Z,100679.93
2019-06-08T00:37:05.108Z,100681.55
2019-06-08T00:39:34.081Z,100685.47
2019-06-08T00:44:40.638Z,100645.97
2019-06-08T00:47:09.674Z,100661.22
2019-06-08T00:49:38.940Z,100670.73
2019-06-08T00:52:10.749Z,100674.17
2019-06-08T00:54:39.340Z,100668.09
2019-06-08T00:57:08.477Z,100673.97
2019-06-08T00:59:37.732Z,100648.25
2019-06-08T01:02:09.623Z,100658.17
2019-06-08T01:04:38.631Z,100684.21
2019-06-08T01:07:08.030Z,100695.38
2019-06-08T01:09:37.021Z,100701.77
2019-06-08T01:12:05.624Z,100705.28
2019-06-08T01:14:34.250Z,100714.41
2019-06-08T01:17:02.871Z,100702.70
2019-06-08T01:22:11.716Z,100717.17
2019-06-08T01:24:40.607Z,100730.86
2019-06-08T01:27:09.573Z,100696.42
2019-06-08T01:29:38.631Z,100673.77
2019-06-08T01:32:07.998Z,100676.34
2019-06-08T01:34:36.961Z,100685.58
2019-06-08T01:37:06.692Z,100733.48
2019-06-08T01:39:35.314Z,100737.85
2019-06-08T01:44:43.485Z,100740.89
2019-06-08T01:49:57.764Z,100739.73
2019-06-08T01:52:27.026Z,100724.81
2019-06-08T01:54:55.995Z,100723.95
2019-06-08T01:57:25.235Z,100721.56
2019-06-08T01:59:54.943Z,100726.03
2019-06-08T02:02:23.828Z,100729.07
2019-06-08T02:07:30.414Z,100722.21
2019-06-08T02:09:59.250Z,100724.12
2019-06-08T02:12:28.850Z,100727.84
2019-06-08T02:14:57.667Z,100729.17
2019-06-08T02:17:27.316Z,100714.05
2019-06-08T02:22:35.122Z,100722.69
2019-06-08T02:25:04.543Z,100719.73
2019-06-08T02:27:33.718Z,100724.30
2019-06-08T02:30:02.626Z,100716.02
2019-06-08T02:32:33.046Z,100722.98
2019-06-08T02:35:02.481Z,100722.56
2019-06-08T02:37:33.115Z,100713.62
2019-06-08T02:42:46.728Z,100707.02
2019-06-08T02:45:15.827Z,100698.14
2019-06-08T02:50:57.954Z,100663.09
2019-06-08T02:53:29.185Z,100689.39
2019-06-08T02:58:38.079Z,100702.42
2019-06-08T03:03:50.464Z,100699.34
2019-06-08T03:06:20.302Z,100714.38
2019-06-08T03:08:50.668Z,100700.39
2019-06-08T03:11:20.757Z,100704.66
2019-06-08T03:13:52.909Z,100721.16
2019-06-08T03:16:22.303Z,100731.61
2019-06-08T03:18:51.599Z,100732.40
2019-06-08T03:21:20.811Z,100729.63
2019-06-08T03:23:50.082Z,100716.82
2019-06-08T03:26:18.767Z,100719.86
2019-06-08T03:28:47.489Z,100744.91
2019-06-08T03:31:16.390Z,100724.94
2019-06-08T03:36:24.518Z,100768.27
2019-06-08T03:41:30.742Z,100772.89
2019-06-08T03:43:59.769Z,100769.16
2019-06-08T03:46:28.334Z,100770.48
2019-06-08T03:48:57.373Z,100731.40
2019-06-08T03:51:26.006Z,100779.73
2019-06-08T03:53:54.592Z,100771.94
2019-06-08T03:56:23.595Z,100762.76
2019-06-08T03:58:52.081Z,100777.66
2019-06-08T04:01:21.150Z,100791.18
2019-06-08T04:03:50.380Z,100790.80
2019-06-08T04:06:19.681Z,100796.05
2019-06-08T04:08:50.006Z,100785.98
2019-06-08T04:11:19.426Z,100788.83
2019-06-08T04:13:47.938Z,100786.67
2019-06-08T04:16:16.510Z,100811.87
2019-06-08T04:18:46.804Z,100822.51
2019-06-08T04:21:15.565Z,100823.27
2019-06-08T04:23:45.349Z,100823.48
2019-06-08T04:26:15.635Z,100822.16
2019-06-08T04:28:44.858Z,100836.05
2019-06-08T04:31:15.002Z,100850.84
2019-06-08T04:33:44.273Z,100846.85
2019-06-08T04:38:50.644Z,100833.41
2019-06-08T04:43:57.110Z,100839.89
2019-06-08T04:46:26.125Z,100840.86
2019-06-08T04:48:55.094Z,100850.31
2019-06-08T04:51:24.008Z,100840.76
2019-06-08T04:53:52.974Z,100855.80
2019-06-08T04:56:21.565Z,100863.03
2019-06-08T05:01:28.710Z,100883.07
2019-06-08T05:03:58.522Z,100880.48
2019-06-08T05:06:27.095Z,100872.21
2019-06-08T05:08:56.237Z,100860.49
2019-06-08T05:14:02.717Z,100839.45
2019-06-08T05:16:31.639Z,100831.67
2019-06-08T05:19:00.604Z,100815.79
2019-06-08T05:21:29.231Z,100829.95
2019-06-08T05:23:59.101Z,100833.74
2019-06-08T05:26:28.106Z,100880.17
2019-06-08T05:28:57.924Z,100892.52
2019-06-08T05:31:26.471Z,100906.79
2019-06-08T05:33:55.066Z,100901.25
2019-06-08T05:36:23.677Z,100881.18
2019-06-08T05:38:52.281Z,100862.06
2019-06-08T05:41:23.935Z,100847.63
2019-06-08T05:50:10.471Z,100902.23
2019-06-08T05:52:39.840Z,100894.98
2019-06-08T05:55:08.601Z,100889.28
2019-06-08T05:57:37.567Z,100884.66
2019-06-08T06:00:09.254Z,100876.18
2019-06-08T06:02:37.945Z,100880.09
2019-06-08T06:05:07.057Z,100897.67
2019-06-08T06:07:35.630Z,100898.16
2019-06-08T06:10:05.189Z,100900.91
2019-06-08T06:12:34.006Z,100915.83
2019-06-08T06:15:03.265Z,100912.73
2019-06-08T06:17:32.163Z,100909.77
2019-06-08T06:20:01.618Z,100912.17
2019-06-08T06:25:08.179Z,100904.29
2019-06-08T06:27:37.408Z,100904.39
2019-06-08T06:30:07.195Z,100910.48
2019-06-08T06:32:36.484Z,100912.66
2019-06-08T06:35:06.281Z,100920.86
2019-06-08T06:37:35.779Z,100929.88
2019-06-08T06:40:05.052Z,100924.76
2019-06-08T06:42:33.637Z,100940.00
2019-06-08T06:45:02.658Z,100937.12
2019-06-08T06:47:31.745Z,100947.99
2019-06-08T06:50:00.378Z,100958.86
2019-06-08T06:52:29.279Z,100954.18
2019-06-08T06:55:03.935Z,100962.86
2019-06-08T07:00:15.913Z,100963.61
2019-06-08T07:02:45.828Z,100974.96
2019-06-08T07:05:14.659Z,100974.48
2019-06-08T07:07:44.120Z,100966.88
2019-06-08T07:10:13.412Z,100979.33
2019-06-08T07:12:42.018Z,100989.24
2019-06-08T07:15:14.470Z,100985.95
2019-06-08T07:17:43.426Z,100998.03
2019-06-08T07:20:12.085Z,101001.57
2019-06-08T07:22:41.099Z,100999.94
2019-06-08T07:25:10.403Z,101004.80
2019-06-08T07:27:38.971Z,101008.62
2019-06-08T07:30:08.887Z,101007.28
2019-06-08T07:32:37.831Z,101000.38
2019-06-08T07:35:06.913Z,100997.52
2019-06-08T07:37:35.942Z,101015.34
2019-06-08T07:40:05.440Z,101012.77
2019-06-08T07:42:34.892Z,101020.91
2019-06-08T07:45:03.859Z,101025.18
2019-06-08T07:50:17.885Z,101032.88
2019-06-08T07:52:47.965Z,101035.73
2019-06-08T07:55:17.603Z,101037.50
2019-06-08T07:57:48.565Z,101031.89
2019-06-08T08:00:17.375Z,101027.25
2019-06-08T08:02:46.013Z,101031.33
2019-06-08T08:05:14.872Z,101013.17
2019-06-08T08:07:44.221Z,101020.16
2019-06-08T08:10:13.821Z,101013.44
2019-06-08T08:12:42.944Z,101017.04
2019-06-08T08:15:12.038Z,101007.64
2019-06-08T08:17:40.661Z,101012.87
2019-06-08T08:20:10.216Z,101025.09
2019-06-08T08:22:38.837Z,101022.94
2019-06-08T08:25:08.378Z,101023.23
2019-06-08T08:27:38.275Z,101040.52
2019-06-08T08:30:08.894Z,101031.28
2019-06-08T08:35:15.155Z,101049.25
2019-06-08T08:37:44.747Z,101057.23
2019-06-08T08:40:14.190Z,101059.43
2019-06-08T08:42:43.697Z,101065.84
2019-06-08T08:45:12.954Z,101069.57
2019-06-08T08:50:20.284Z,101071.39
2019-06-08T08:52:51.198Z,101064.45
2019-06-08T08:55:20.744Z,101072.02
2019-06-08T08:57:51.601Z,101064.31
2019-06-08T09:00:20.830Z,101084.34
2019-06-08T09:02:59.086Z,101080.17
2019-06-08T09:05:20.601Z,101080.45
2019-06-08T09:07:52.039Z,101071.46
2019-06-08T09:10:20.613Z,101079.61
2019-06-08T09:12:52.124Z,101082.73
2019-06-08T09:15:20.148Z,101089.98
2019-06-08T09:17:52.125Z,101100.80
2019-06-08T09:20:20.397Z,101088.77
2019-06-08T09:22:56.625Z,101092.27
2019-06-08T09:25:19.457Z,101093.23
2019-06-08T09:30:27.494Z,101108.67
2019-06-08T09:32:59.410Z,101118.16
2019-06-08T09:35:28.002Z,101114.97
2019-06-08T09:38:01.153Z,101101.36
2019-06-08T09:43:10.328Z,101118.75
2019-06-08T09:48:14.077Z,101112.22
2019-06-08T09:50:43.451Z,101102.80
2019-06-08T09:55:50.489Z,101113.34
2019-06-08T09:58:19.537Z,101114.06
2019-06-08T10:00:49.420Z,101115.44
2019-06-08T10:05:58.506Z,101117.03
2019-06-08T10:08:28.309Z,101136.92
2019-06-08T10:11:01.464Z,101125.69
2019-06-08T10:13:30.593Z,101124.73
2019-06-08T10:16:03.131Z,101128.80
2019-06-08T10:18:30.420Z,101117.22
2019-06-08T10:23:42.839Z,101134.17
2019-06-08T10:28:52.324Z,101146.46
2019-06-08T10:31:35.542Z,101148.20
2019-06-08T10:36:31.034Z,101152.95
2019-06-08T10:39:03.739Z,101167.34
2019-06-08T10:44:13.850Z,101164.83
2019-06-08T10:46:40.596Z,101165.60
2019-06-08T10:49:14.239Z,101170.23
2019-06-08T10:51:41.223Z,101169.44
2019-06-08T10:56:51.562Z,101173.52
2019-06-08T10:59:20.500Z,101167.99
2019-06-08T11:01:49.883Z,101173.07
2019-06-08T11:04:18.760Z,101172.70
2019-06-08T11:09:24.929Z,101181.88
2019-06-08T11:11:54.001Z,101192.08
2019-06-08T11:14:22.957Z,101181.88
2019-06-08T11:16:52.135Z,101188.19
2019-06-08T11:19:21.066Z,101192.30
2019-06-08T11:21:49.853Z,101194.34
2019-06-08T11:24:24.948Z,101197.17
2019-06-08T11:29:27.542Z,101187.33
2019-06-08T11:31:59.926Z,101210.25
2019-06-08T11:34:29.095Z,101213.16
2019-06-08T11:36:59.611Z,101217.09
2019-06-08T11:39:29.085Z,101210.31
2019-06-08T11:41:59.084Z,101198.08
2019-06-08T11:44:29.346Z,101215.45
2019-06-08T11:46:58.072Z,101237.35
2019-06-08T11:49:27.879Z,101218.77
2019-06-08T11:51:58.348Z,101217.95
2019-06-08T11:54:36.156Z,101231.89
2019-06-08T11:57:00.679Z,101214.34
2019-06-08T11:59:31.698Z,101226.16
2019-06-08T12:02:01.900Z,101227.43
2019-06-08T12:04:31.117Z,101223.95
2019-06-08T12:07:00.519Z,101224.81
2019-06-08T12:09:29.247Z,101224.29
2019-06-08T12:11:58.500Z,101219.85
2019-06-08T12:14:27.196Z,101234.39
2019-06-08T12:16:58.123Z,101232.83
2019-06-08T12:19:28.438Z,101232.12
2019-06-08T12:21:58.132Z,101237.84
2019-06-08T12:24:40.954Z,101239.48
2019-06-08T12:27:03.523Z,101243.25
2019-06-08T12:32:08.888Z,101247.24
2019-06-08T12:34:38.462Z,101246.72
2019-06-08T12:37:08.826Z,101246.00
2019-06-08T12:39:38.861Z,101243.92
2019-06-08T12:42:15.628Z,101252.81
2019-06-08T12:44:39.470Z,101247.45
2019-06-08T12:47:13.334Z,101260.82
2019-06-08T12:49:40.401Z,101245.92
2019-06-08T12:52:12.413Z,101254.78
2019-06-08T12:54:56.193Z,101243.50
2019-06-08T12:57:14.929Z,101252.59
2019-06-08T13:02:24.107Z,101252.11
2019-06-08T13:04:52.104Z,101262.56
2019-06-08T13:07:20.759Z,101249.87
2019-06-08T13:09:50.085Z,101267.15
2019-06-08T13:12:20.339Z,101267.34
2019-06-08T13:14:50.624Z,101269.23
2019-06-08T13:17:21.266Z,101270.14
2019-06-08T13:19:50.725Z,101256.55
2019-06-08T13:22:23.935Z,101266.88
2019-06-08T13:24:49.765Z,101282.37
2019-06-08T13:27:21.532Z,101276.09
2019-06-08T13:32:28.458Z,101282.47
2019-06-08T13:34:58.450Z,101304.73
2019-06-08T13:37:27.936Z,101288.47
2019-06-08T13:39:59.044Z,101292.73
2019-06-08T13:42:27.993Z,101282.05
2019-06-08T13:44:57.923Z,101284.87
2019-06-08T13:47:28.288Z,101284.20
2019-06-08T13:49:57.001Z,101280.87
2019-06-08T13:52:28.021Z,101275.25
2019-06-08T13:54:58.344Z,101280.02
2019-06-08T13:57:27.132Z,101288.30
2019-06-08T13:59:57.872Z,101282.14
2019-06-08T14:02:30.927Z,101298.59
2019-06-08T14:04:59.159Z,101288.70
2019-06-08T14:07:34.240Z,101300.21
2019-06-08T14:10:01.718Z,101299.98
2019-06-08T14:12:31.440Z,101294.80
2019-06-08T14:15:00.491Z,101299.22
2019-06-08T14:20:08.073Z,101301.30
2019-06-08T14:22:38.795Z,101293.23
2019-06-08T14:27:47.998Z,101307.90
2019-06-08T14:30:18.276Z,101308.22
2019-06-08T14:32:47.937Z,101335.22
2019-06-08T14:35:20.625Z,101310.22
2019-06-08T14:37:48.238Z,101316.33
2019-06-08T14:40:17.759Z,101315.10
2019-06-08T14:42:48.490Z,101317.58
2019-06-08T14:45:18.129Z,101318.63
2019-06-08T14:47:47.909Z,101319.02
2019-06-08T14:50:18.478Z,101329.91
2019-06-08T14:52:50.393Z,101314.87
2019-06-08T14:55:20.238Z,101310.41
2019-06-08T14:57:49.665Z,101328.56
2019-06-08T15:02:59.152Z,101313.52
2019-06-08T15:05:30.728Z,101310.94
2019-06-08T15:10:38.281Z,101313.59
2019-06-08T15:13:07.748Z,101305.63
2019-06-08T15:15:38.091Z,101323.05
2019-06-08T15:18:10.558Z,101311.92
2019-06-08T15:20:38.095Z,101318.03
2019-06-08T15:23:08.178Z,101298.84
2019-06-08T15:25:38.673Z,101309.23
2019-06-08T15:28:08.239Z,101306.78
2019-06-08T15:30:38.105Z,101307.16
2019-06-08T15:35:47.566Z,101308.77
2019-06-08T15:38:17.554Z,101305.09
2019-06-08T15:40:47.802Z,101302.25
2019-06-08T15:43:18.254Z,101311.63
2019-06-08T15:48:28.983Z,101299.27
2019-06-08T15:50:58.363Z,101307.66
2019-06-08T15:53:29.681Z,101300.77
2019-06-08T15:55:58.470Z,101305.89
2019-06-08T15:58:29.919Z,101306.55
2019-06-08T16:00:58.474Z,101304.09
2019-06-08T16:03:27.441Z,101308.62
2019-06-08T16:08:37.864Z,101297.63
2019-06-08T16:11:06.632Z,101306.91
2019-06-08T16:13:35.782Z,101312.04
2019-06-08T16:16:04.600Z,101309.73
2019-06-08T16:18:33.557Z,101308.63
2019-06-08T16:23:40.252Z,101306.39
2019-06-08T16:26:09.562Z,101316.83
2019-06-08T16:28:38.676Z,101317.20
2019-06-08T16:31:08.058Z,101313.56
2019-06-08T16:33:36.950Z,101334.00
2019-06-08T16:36:05.556Z,101321.69
2019-06-08T16:38:34.592Z,101322.20
2019-06-08T16:43:42.233Z,101327.81
2019-06-08T16:46:11.890Z,101323.42
2019-06-08T16:51:18.358Z,101325.16
2019-06-08T16:53:47.347Z,101324.46
2019-06-08T16:58:56.588Z,101321.95
2019-06-08T17:01:25.171Z,101324.84
2019-06-08T17:03:54.070Z,101321.84
2019-06-08T17:06:23.252Z,101321.48
2019-06-08T17:11:33.790Z,101319.12
2019-06-08T17:14:02.827Z,101347.68
2019-06-08T17:16:32.216Z,101328.77
2019-06-08T17:21:40.589Z,101330.98
2019-06-08T17:26:46.709Z,101326.59
2019-06-08T17:29:15.710Z,101331.97
2019-06-08T17:31:44.809Z,101328.81
2019-06-08T17:34:13.650Z,101332.70
2019-06-08T17:36:42.750Z,101348.27
2019-06-08T17:41:48.932Z,101330.01
2019-06-08T17:44:17.771Z,101342.35
2019-06-08T17:49:26.393Z,101341.64
2019-06-08T17:51:55.249Z,101339.59
2019-06-08T17:54:24.598Z,101347.44
2019-06-08T17:56:54.411Z,101345.70
2019-06-08T17:59:23.383Z,101361.62
2019-06-08T18:01:53.104Z,101352.89
2019-06-08T18:04:22.210Z,101352.89
2019-06-08T18:06:51.067Z,101354.25
2019-06-08T18:09:20.105Z,101355.36
2019-06-08T18:11:49.346Z,101359.02
2019-06-08T18:14:18.234Z,101362.80
2019-06-08T18:16:47.926Z,101365.08
2019-06-08T18:19:28.310Z,101365.69
2019-06-08T18:22:04.707Z,101372.91
2019-06-08T18:24:28.421Z,101368.45
2019-06-08T18:26:58.742Z,101379.11
2019-06-08T18:29:27.934Z,101374.76
2019-06-08T18:31:58.139Z,101383.98
2019-06-08T18:34:28.181Z,101374.83
2019-06-08T18:36:58.188Z,101385.50
2019-06-08T18:42:10.178Z,101380.02
2019-06-08T18:44:42.466Z,101385.28
2019-06-08T18:47:10.718Z,101385.51
2019-06-08T18:52:17.910Z,101394.56
2019-06-08T18:54:49.277Z,101393.64
2019-06-08T18:57:17.665Z,101393.94
2019-06-08T19:02:25.929Z,101395.52
2019-06-08T19:04:57.361Z,101399.94
2019-06-08T19:07:28.310Z,101400.80
2019-06-08T19:09:59.683Z,101399.45
2019-06-08T19:12:28.709Z,101406.70
2019-06-08T19:14:58.615Z,101411.31
2019-06-08T19:17:28.435Z,101408.18
2019-06-08T19:19:58.055Z,101408.58
2019-06-08T19:22:30.069Z,101410.88
2019-06-08T19:24:57.844Z,101408.28
2019-06-08T19:27:27.697Z,101418.70
2019-06-08T19:29:57.770Z,101419.20
2019-06-08T19:32:28.030Z,101425.81
2019-06-08T19:34:57.997Z,101426.45
2019-06-08T19:37:28.059Z,101429.34
2019-06-08T19:39:57.780Z,101426.02
2019-06-08T19:42:36.667Z,101434.34
2019-06-08T19:45:05.069Z,101449.34
2019-06-08T19:47:27.999Z,101471.71
2019-06-08T19:49:57.787Z,101493.80
2019-06-08T19:52:26.551Z,101491.39
2019-06-08T19:54:55.263Z,101484.59
2019-06-08T19:57:24.223Z,101484.89
2019-06-08T19:59:53.149Z,101494.73
2019-06-08T20:02:21.808Z,101494.05
2019-06-08T20:04:50.549Z,101504.47
2019-06-08T20:07:19.534Z,101505.02
2019-06-08T20:09:49.687Z,101503.58
2019-06-08T20:12:18.978Z,101505.59
2019-06-08T20:14:48.410Z,101502.80
2019-06-08T20:17:19.418Z,101503.66
2019-06-08T20:19:50.491Z,101502.85
2019-06-08T20:24:56.095Z,101506.09
2019-06-08T20:30:09.542Z,101509.86
2019-06-08T20:32:37.847Z,101507.59
2019-06-08T20:35:07.976Z,101503.91
2019-06-08T20:37:38.097Z,101512.08
2019-06-08T20:40:13.645Z,101517.86
2019-06-08T20:42:37.942Z,101515.63
2019-06-08T20:45:08.178Z,101512.36
2019-06-08T20:47:39.075Z,101517.89
2019-06-08T20:50:07.952Z,101520.89
2019-06-08T20:52:37.832Z,101529.34
2019-06-08T20:55:07.813Z,101531.30
2019-06-08T20:57:36.864Z,101527.30
2019-06-08T21:00:09.180Z,101522.55
2019-06-08T21:02:37.787Z,101524.35
2019-06-08T21:05:07.864Z,101529.36
2019-06-08T21:07:37.081Z,101529.50
2019-06-08T21:10:08.544Z,101527.42
2019-06-08T21:12:37.961Z,101526.30
2019-06-08T21:15:07.232Z,101522.36
2019-06-08T21:17:38.239Z,101530.51
2019-06-08T21:20:08.481Z,101522.20
2019-06-08T21:22:37.393Z,101516.03
2019-06-08T21:25:08.703Z,101520.87
2019-06-08T21:27:38.530Z,101523.77
2019-06-08T21:30:19.793Z,101525.11
2019-06-08T21:32:38.690Z,101536.66
2019-06-08T21:35:07.891Z,101528.34
2019-06-08T21:37:37.728Z,101525.05
2019-06-08T21:40:08.512Z,101534.21
2019-06-08T21:42:37.140Z,101524.04
2019-06-08T21:45:09.436Z,101528.11
2019-06-08T21:47:37.844Z,101529.36
2019-06-08T21:50:08.090Z,101532.72
2019-06-08T21:55:14.483Z,101534.94
2019-06-08T21:57:43.199Z,101536.18
2019-06-08T22:00:34.715Z,101532.03
2019-06-08T22:02:43.319Z,101537.27
2019-06-08T22:05:12.617Z,101535.94
2019-06-08T22:07:42.097Z,101546.59
2019-06-08T22:12:53.281Z,101546.67
2019-06-08T22:15:22.435Z,101550.64
2019-06-08T22:17:52.004Z,101554.37
2019-06-08T22:23:00.918Z,101545.15
2019-06-08T22:25:33.203Z,101550.20
2019-06-08T22:30:42.749Z,101547.62
2019-06-08T22:33:08.872Z,101556.40
2019-06-08T22:35:37.935Z,101559.84
2019-06-08T22:38:10.090Z,101559.22
2019-06-08T22:40:39.489Z,101557.73
2019-06-08T22:43:08.347Z,101553.47
2019-06-08T22:45:37.698Z,101558.28
2019-06-08T22:48:08.163Z,101562.00
2019-06-08T22:50:38.251Z,101563.59
2019-06-08T22:53:08.018Z,101558.41
2019-06-08T22:55:38.277Z,101566.89
2019-06-08T22:58:07.778Z,101563.59
2019-06-08T23:00:51.777Z,101567.62
2019-06-08T23:05:47.791Z,101569.81
2019-06-08T23:08:17.685Z,101567.78
2019-06-08T23:10:48.266Z,101568.21
2019-06-08T23:13:17.892Z,101575.41
2019-06-08T23:15:47.887Z,101578.46
2019-06-08T23:18:18.097Z,101578.46
2019-06-08T23:23:23.928Z,101576.23
2019-06-08T23:25:52.943Z,101588.34
2019-06-08T23:28:21.880Z,101586.14
2019-06-08T23:31:03.662Z,101582.20
2019-06-08T23:33:22.047Z,101589.41
2019-06-08T23:36:30.002Z,101594.86
2019-06-08T23:38:21.859Z,101594.86
2019-06-08T23:40:50.980Z,101590.17
2019-06-08T23:43:20.004Z,101588.53
2019-06-08T23:45:49.003Z,101592.72
2019-06-08T23:48:17.638Z,101587.70
2019-06-08T23:50:47.390Z,101589.80
2019-06-08T23:55:58.277Z,101585.97
2019-06-08T23:58:27.820Z,101591.31
